sensor_id;sensor_type;location;lat;lon;timestamp;noise_LAeq;noise_LA_min;noise_LA_max;noise_LA01;noise_LA95
71016;Laerm;60940;52.046;5.340;2022-11-20T00:00:07;31.42;30.12;35.08;;
71016;Laerm;60940;52.046;5.340;2022-11-20T00:00:18;31.68;29.93;36.00;;
71016;Laerm;60940;52.046;5.340;2022-11-20T00:00:28;31.93;30.05;34.88;;
71016;Laerm;60940;52.046;5.340;2022-11-20T00:00:38;31.93;30.55;34.28;;
71016;Laerm;60940;52.046;5.340;2022-11-20T00:00:48;31.78;29.97;33.44;;
71016;Laerm;60940;52.046;5.340;2022-11-20T00:01:12;31.35;29.82;33.73;;
71016;Laerm;60940;52.046;5.340;2022-11-20T00:01:23;31.29;30.00;32.79;;
71016;Laerm;60940;52.046;5.340;2022-11-20T00:01:34;31.72;30.34;33.66;;
71016;Laerm;60940;52.046;5.340;2022-11-20T00:01:44;32.12;30.54;33.66;;
71016;Laerm;60940;52.046;5.340;2022-11-20T00:01:54;31.60;30.00;33.06;;
71016;Laerm;60940;52.046;5.340;2022-11-20T00:02:04;31.78;30.29;33.17;;
71016;Laerm;60940;52.046;5.340;2022-11-20T00:02:15;31.84;30.66;34.58;;
71016;Laerm;60940;52.046;5.340;2022-11-20T00:02:25;31.59;29.74;33.15;;
71016;Laerm;60940;52.046;5.340;2022-11-20T00:02:35;31.59;29.88;34.14;;
71016;Laerm;60940;52.046;5.340;2022-11-20T00:02:45;31.49;30.03;32.77;;
71016;Laerm;60940;52.046;5.340;2022-11-20T00:02:55;31.67;30.17;33.56;;
71016;Laerm;60940;52.046;5.340;2022-11-20T00:03:05;32.00;30.38;33.33;;
71016;Laerm;60940;52.046;5.340;2022-11-20T00:03:16;32.60;30.33;37.39;;
71016;Laerm;60940;52.046;5.340;2022-11-20T00:03:27;32.66;30.95;34.46;;
71016;Laerm;60940;52.046;5.340;2022-11-20T00:03:37;32.42;30.85;34.73;;
71016;Laerm;60940;52.046;5.340;2022-11-20T00:03:47;32.41;30.53;34.72;;
71016;Laerm;60940;52.046;5.340;2022-11-20T00:03:58;32.59;30.58;34.38;;
71016;Laerm;60940;52.046;5.340;2022-11-20T00:04:09;34.46;31.01;38.73;;
71016;Laerm;60940;52.046;5.340;2022-11-20T00:04:20;32.34;30.62;34.37;;
71016;Laerm;60940;52.046;5.340;2022-11-20T00:04:30;31.88;30.34;33.34;;
71016;Laerm;60940;52.046;5.340;2022-11-20T00:04:40;32.20;30.77;33.50;;
71016;Laerm;60940;52.046;5.340;2022-11-20T00:04:50;31.98;29.85;34.77;;
71016;Laerm;60940;52.046;5.340;2022-11-20T00:05:01;31.96;30.51;33.37;;
71016;Laerm;60940;52.046;5.340;2022-11-20T00:05:11;32.24;30.53;33.40;;
71016;Laerm;60940;52.046;5.340;2022-11-20T00:05:21;31.98;30.56;33.55;;
71016;Laerm;60940;52.046;5.340;2022-11-20T00:05:32;32.12;30.34;33.53;;
71016;Laerm;60940;52.046;5.340;2022-11-20T00:05:42;32.68;30.67;34.66;;
71016;Laerm;60940;52.046;5.340;2022-11-20T00:05:53;33.13;30.81;35.09;;
71016;Laerm;60940;52.046;5.340;2022-11-20T00:06:04;32.60;30.76;35.21;;
71016;Laerm;60940;52.046;5.340;2022-11-20T00:06:16;32.12;30.56;39.34;;
71016;Laerm;60940;52.046;5.340;2022-11-20T00:06:26;32.26;30.80;34.00;;
71016;Laerm;60940;52.046;5.340;2022-11-20T00:06:37;32.35;30.69;34.46;;
71016;Laerm;60940;52.046;5.340;2022-11-20T00:06:47;32.52;31.05;34.16;;
71016;Laerm;60940;52.046;5.340;2022-11-20T00:06:58;32.18;30.61;39.11;;
71016;Laerm;60940;52.046;5.340;2022-11-20T00:07:08;32.65;30.32;42.76;;
71016;Laerm;60940;52.046;5.340;2022-11-20T00:07:18;34.03;30.19;48.28;;
71016;Laerm;60940;52.046;5.340;2022-11-20T00:07:28;32.12;30.54;34.70;;
71016;Laerm;60940;52.046;5.340;2022-11-20T00:07:38;31.92;30.28;34.06;;
71016;Laerm;60940;52.046;5.340;2022-11-20T00:07:48;31.49;30.07;33.40;;
71016;Laerm;60940;52.046;5.340;2022-11-20T00:07:59;31.79;30.51;35.05;;
71016;Laerm;60940;52.046;5.340;2022-11-20T00:08:09;32.27;30.45;34.91;;
71016;Laerm;60940;52.046;5.340;2022-11-20T00:08:19;32.59;30.24;36.97;;
71016;Laerm;60940;52.046;5.340;2022-11-20T00:08:30;31.63;30.04;33.44;;
71016;Laerm;60940;52.046;5.340;2022-11-20T00:08:40;31.55;30.12;36.71;;
71016;Laerm;60940;52.046;5.340;2022-11-20T00:08:52;31.64;30.29;33.67;;
71016;Laerm;60940;52.046;5.340;2022-11-20T00:09:03;32.18;30.68;35.36;;
71016;Laerm;60940;52.046;5.340;2022-11-20T00:09:15;32.11;30.08;33.77;;
71016;Laerm;60940;52.046;5.340;2022-11-20T00:09:25;31.66;30.18;33.18;;
71016;Laerm;60940;52.046;5.340;2022-11-20T00:09:35;31.75;30.30;33.13;;
71016;Laerm;60940;52.046;5.340;2022-11-20T00:09:45;31.79;29.96;35.29;;
71016;Laerm;60940;52.046;5.340;2022-11-20T00:09:55;31.90;30.13;33.54;;
71016;Laerm;60940;52.046;5.340;2022-11-20T00:10:06;31.89;30.47;33.35;;
71016;Laerm;60940;52.046;5.340;2022-11-20T00:10:16;31.69;30.16;34.18;;
71016;Laerm;60940;52.046;5.340;2022-11-20T00:10:26;31.93;30.62;33.40;;
71016;Laerm;60940;52.046;5.340;2022-11-20T00:10:37;32.56;30.89;36.37;;
71016;Laerm;60940;52.046;5.340;2022-11-20T00:10:48;32.29;30.76;34.32;;
71016;Laerm;60940;52.046;5.340;2022-11-20T00:11:02;32.34;30.85;33.70;;
71016;Laerm;60940;52.046;5.340;2022-11-20T00:11:13;31.93;30.57;33.53;;
71016;Laerm;60940;52.046;5.340;2022-11-20T00:11:25;32.12;30.61;33.34;;
71016;Laerm;60940;52.046;5.340;2022-11-20T00:11:35;32.35;30.22;36.97;;
71016;Laerm;60940;52.046;5.340;2022-11-20T00:11:45;31.78;30.34;33.27;;
71016;Laerm;60940;52.046;5.340;2022-11-20T00:11:56;31.76;30.22;33.08;;
71016;Laerm;60940;52.046;5.340;2022-11-20T00:12:06;32.19;30.39;35.28;;
71016;Laerm;60940;52.046;5.340;2022-11-20T00:12:16;31.90;29.87;35.21;;
71016;Laerm;60940;52.046;5.340;2022-11-20T00:12:26;32.01;30.58;33.58;;
71016;Laerm;60940;52.046;5.340;2022-11-20T00:12:36;32.02;30.40;33.61;;
71016;Laerm;60940;52.046;5.340;2022-11-20T00:12:46;31.67;30.18;39.60;;
71016;Laerm;60940;52.046;5.340;2022-11-20T00:12:57;31.52;30.04;33.09;;
71016;Laerm;60940;52.046;5.340;2022-11-20T00:13:08;31.56;30.25;33.08;;
71016;Laerm;60940;52.046;5.340;2022-11-20T00:13:18;31.83;30.29;33.24;;
71016;Laerm;60940;52.046;5.340;2022-11-20T00:13:28;33.58;31.03;39.09;;
71016;Laerm;60940;52.046;5.340;2022-11-20T00:13:38;32.85;31.02;36.32;;
71016;Laerm;60940;52.046;5.340;2022-11-20T00:13:50;32.10;30.47;33.74;;
71016;Laerm;60940;52.046;5.340;2022-11-20T00:14:01;32.87;31.00;34.44;;
71016;Laerm;60940;52.046;5.340;2022-11-20T00:14:11;32.94;31.37;36.94;;
71016;Laerm;60940;52.046;5.340;2022-11-20T00:14:21;32.74;31.14;34.86;;
71016;Laerm;60940;52.046;5.340;2022-11-20T00:14:31;32.66;30.66;37.00;;
71016;Laerm;60940;52.046;5.340;2022-11-20T00:14:43;31.85;30.18;33.36;;
71016;Laerm;60940;52.046;5.340;2022-11-20T00:14:54;31.76;30.45;33.39;;
71016;Laerm;60940;52.046;5.340;2022-11-20T00:15:04;32.40;30.86;38.05;;
71016;Laerm;60940;52.046;5.340;2022-11-20T00:15:14;32.44;30.40;33.88;;
71016;Laerm;60940;52.046;5.340;2022-11-20T00:15:25;32.41;30.87;36.66;;
71016;Laerm;60940;52.046;5.340;2022-11-20T00:15:35;32.18;30.43;33.45;;
71016;Laerm;60940;52.046;5.340;2022-11-20T00:15:45;32.22;30.79;33.60;;
71016;Laerm;60940;52.046;5.340;2022-11-20T00:15:58;32.37;30.64;35.40;;
71016;Laerm;60940;52.046;5.340;2022-11-20T00:16:09;32.30;30.80;34.23;;
71016;Laerm;60940;52.046;5.340;2022-11-20T00:16:21;32.09;30.23;33.67;;
71016;Laerm;60940;52.046;5.340;2022-11-20T00:16:32;31.73;30.02;33.67;;
71016;Laerm;60940;52.046;5.340;2022-11-20T00:16:43;32.05;30.25;34.59;;
71016;Laerm;60940;52.046;5.340;2022-11-20T00:16:53;31.81;30.38;37.38;;
71016;Laerm;60940;52.046;5.340;2022-11-20T00:17:03;31.88;30.51;32.90;;
71016;Laerm;60940;52.046;5.340;2022-11-20T00:17:13;31.74;30.19;33.02;;
71016;Laerm;60940;52.046;5.340;2022-11-20T00:17:23;31.73;30.24;33.13;;
71016;Laerm;60940;52.046;5.340;2022-11-20T00:17:34;32.23;30.72;33.60;;
71016;Laerm;60940;52.046;5.340;2022-11-20T00:17:44;32.53;31.15;34.02;;
71016;Laerm;60940;52.046;5.340;2022-11-20T00:17:54;32.54;30.83;34.51;;
71016;Laerm;60940;52.046;5.340;2022-11-20T00:18:04;31.90;30.61;33.00;;
71016;Laerm;60940;52.046;5.340;2022-11-20T00:18:14;32.09;30.54;33.89;;
71016;Laerm;60940;52.046;5.340;2022-11-20T00:18:25;31.97;30.35;33.63;;
71016;Laerm;60940;52.046;5.340;2022-11-20T00:18:36;31.79;30.41;33.56;;
71016;Laerm;60940;52.046;5.340;2022-11-20T00:18:47;31.72;30.18;32.79;;
71016;Laerm;60940;52.046;5.340;2022-11-20T00:18:57;32.43;30.46;34.01;;
71016;Laerm;60940;52.046;5.340;2022-11-20T00:19:07;32.60;31.24;36.74;;
71016;Laerm;60940;52.046;5.340;2022-11-20T00:19:17;32.39;30.58;34.29;;
71016;Laerm;60940;52.046;5.340;2022-11-20T00:19:27;33.14;31.07;34.75;;
71016;Laerm;60940;52.046;5.340;2022-11-20T00:19:38;32.72;31.27;34.24;;
71016;Laerm;60940;52.046;5.340;2022-11-20T00:19:48;32.53;30.67;36.29;;
71016;Laerm;60940;52.046;5.340;2022-11-20T00:19:58;34.78;31.51;37.73;;
71016;Laerm;60940;52.046;5.340;2022-11-20T00:20:08;33.81;31.25;35.86;;
71016;Laerm;60940;52.046;5.340;2022-11-20T00:20:19;32.15;30.49;39.51;;
71016;Laerm;60940;52.046;5.340;2022-11-20T00:20:29;31.76;30.59;33.42;;
71016;Laerm;60940;52.046;5.340;2022-11-20T00:20:40;31.76;30.06;33.35;;
71016;Laerm;60940;52.046;5.340;2022-11-20T00:20:50;31.94;30.12;33.42;;
71016;Laerm;60940;52.046;5.340;2022-11-20T00:21:01;31.92;30.31;33.51;;
71016;Laerm;60940;52.046;5.340;2022-11-20T00:21:13;32.53;30.17;43.09;;
71016;Laerm;60940;52.046;5.340;2022-11-20T00:21:25;31.62;30.40;32.85;;
71016;Laerm;60940;52.046;5.340;2022-11-20T00:21:35;31.70;30.41;33.00;;
71016;Laerm;60940;52.046;5.340;2022-11-20T00:21:45;31.97;30.35;33.51;;
71016;Laerm;60940;52.046;5.340;2022-11-20T00:21:56;32.19;30.64;33.87;;
71016;Laerm;60940;52.046;5.340;2022-11-20T00:22:06;32.12;30.30;33.82;;
71016;Laerm;60940;52.046;5.340;2022-11-20T00:22:16;32.17;30.66;34.89;;
71016;Laerm;60940;52.046;5.340;2022-11-20T00:22:26;31.83;30.53;33.62;;
71016;Laerm;60940;52.046;5.340;2022-11-20T00:22:36;32.08;30.66;33.54;;
71016;Laerm;60940;52.046;5.340;2022-11-20T00:22:47;32.33;30.65;34.44;;
71016;Laerm;60940;52.046;5.340;2022-11-20T00:22:57;31.82;30.62;33.11;;
71016;Laerm;60940;52.046;5.340;2022-11-20T00:23:07;32.33;30.79;34.21;;
71016;Laerm;60940;52.046;5.340;2022-11-20T00:23:17;32.23;30.61;37.94;;
71016;Laerm;60940;52.046;5.340;2022-11-20T00:23:27;31.84;30.47;35.27;;
71016;Laerm;60940;52.046;5.340;2022-11-20T00:23:37;31.73;30.20;33.01;;
71016;Laerm;60940;52.046;5.340;2022-11-20T00:23:48;31.71;30.46;33.17;;
71016;Laerm;60940;52.046;5.340;2022-11-20T00:23:58;32.45;30.85;34.42;;
71016;Laerm;60940;52.046;5.340;2022-11-20T00:24:09;31.88;30.34;35.20;;
71016;Laerm;60940;52.046;5.340;2022-11-20T00:24:20;31.79;30.62;33.49;;
71016;Laerm;60940;52.046;5.340;2022-11-20T00:24:30;33.53;31.13;36.50;;
71016;Laerm;60940;52.046;5.340;2022-11-20T00:24:41;31.95;30.64;34.08;;
71016;Laerm;60940;52.046;5.340;2022-11-20T00:24:51;31.93;30.23;33.26;;
71016;Laerm;60940;52.046;5.340;2022-11-20T00:25:01;31.89;30.25;33.21;;
71016;Laerm;60940;52.046;5.340;2022-11-20T00:25:11;31.70;30.17;33.54;;
71016;Laerm;60940;52.046;5.340;2022-11-20T00:25:21;31.38;29.91;35.70;;
71016;Laerm;60940;52.046;5.340;2022-11-20T00:25:33;31.43;29.72;32.94;;
71016;Laerm;60940;52.046;5.340;2022-11-20T00:25:43;31.61;30.29;33.15;;
71016;Laerm;60940;52.046;5.340;2022-11-20T00:25:53;31.78;29.83;33.05;;
71016;Laerm;60940;52.046;5.340;2022-11-20T00:26:04;31.84;30.50;33.87;;
71016;Laerm;60940;52.046;5.340;2022-11-20T00:26:15;32.38;30.51;34.26;;
71016;Laerm;60940;52.046;5.340;2022-11-20T00:26:26;34.39;31.87;36.97;;
71016;Laerm;60940;52.046;5.340;2022-11-20T00:26:37;32.93;30.96;37.24;;
71016;Laerm;60940;52.046;5.340;2022-11-20T00:26:47;33.62;31.67;37.02;;
71016;Laerm;60940;52.046;5.340;2022-11-20T00:26:57;32.56;30.74;34.33;;
71016;Laerm;60940;52.046;5.340;2022-11-20T00:27:07;34.79;30.62;40.46;;
71016;Laerm;60940;52.046;5.340;2022-11-20T00:27:18;32.23;30.17;33.49;;
71016;Laerm;60940;52.046;5.340;2022-11-20T00:27:28;32.37;30.97;34.03;;
71016;Laerm;60940;52.046;5.340;2022-11-20T00:27:38;31.93;30.05;35.85;;
71016;Laerm;60940;52.046;5.340;2022-11-20T00:27:48;31.39;30.18;32.97;;
71016;Laerm;60940;52.046;5.340;2022-11-20T00:27:59;31.40;30.06;39.78;;
71016;Laerm;60940;52.046;5.340;2022-11-20T00:28:09;31.26;29.91;32.55;;
71016;Laerm;60940;52.046;5.340;2022-11-20T00:28:19;31.42;30.07;33.11;;
71016;Laerm;60940;52.046;5.340;2022-11-20T00:28:29;31.70;30.19;33.21;;
71016;Laerm;60940;52.046;5.340;2022-11-20T00:28:39;31.84;30.12;33.31;;
71016;Laerm;60940;52.046;5.340;2022-11-20T00:28:52;31.98;30.56;33.95;;
71016;Laerm;60940;52.046;5.340;2022-11-20T00:29:02;33.56;31.21;37.00;;
71016;Laerm;60940;52.046;5.340;2022-11-20T00:29:12;33.31;31.17;35.23;;
71016;Laerm;60940;52.046;5.340;2022-11-20T00:29:23;31.87;30.41;33.78;;
71016;Laerm;60940;52.046;5.340;2022-11-20T00:29:33;32.04;30.38;34.47;;
71016;Laerm;60940;52.046;5.340;2022-11-20T00:29:43;32.17;30.52;33.62;;
71016;Laerm;60940;52.046;5.340;2022-11-20T00:29:53;31.80;30.39;33.23;;
71016;Laerm;60940;52.046;5.340;2022-11-20T00:30:04;31.74;30.04;33.14;;
71016;Laerm;60940;52.046;5.340;2022-11-20T00:30:14;31.66;30.37;33.22;;
71016;Laerm;60940;52.046;5.340;2022-11-20T00:30:24;31.43;30.21;32.72;;
71016;Laerm;60940;52.046;5.340;2022-11-20T00:30:34;31.39;30.06;32.92;;
71016;Laerm;60940;52.046;5.340;2022-11-20T00:30:45;31.62;30.18;33.60;;
71016;Laerm;60940;52.046;5.340;2022-11-20T00:31:05;31.52;30.14;32.61;;
71016;Laerm;60940;52.046;5.340;2022-11-20T00:31:15;31.69;30.14;33.53;;
71016;Laerm;60940;52.046;5.340;2022-11-20T00:31:26;31.31;29.82;33.18;;
71016;Laerm;60940;52.046;5.340;2022-11-20T00:31:37;31.57;30.27;33.10;;
71016;Laerm;60940;52.046;5.340;2022-11-20T00:31:47;31.72;30.23;33.10;;
71016;Laerm;60940;52.046;5.340;2022-11-20T00:31:57;31.56;30.25;33.27;;
71016;Laerm;60940;52.046;5.340;2022-11-20T00:32:08;31.66;30.24;34.49;;
71016;Laerm;60940;52.046;5.340;2022-11-20T00:32:18;31.64;30.35;33.13;;
71016;Laerm;60940;52.046;5.340;2022-11-20T00:32:28;31.60;30.38;33.05;;
71016;Laerm;60940;52.046;5.340;2022-11-20T00:32:39;31.85;30.22;34.48;;
71016;Laerm;60940;52.046;5.340;2022-11-20T00:32:49;31.82;30.19;33.59;;
71016;Laerm;60940;52.046;5.340;2022-11-20T00:32:59;31.89;29.48;36.87;;
71016;Laerm;60940;52.046;5.340;2022-11-20T00:33:09;31.61;30.33;32.98;;
71016;Laerm;60940;52.046;5.340;2022-11-20T00:33:19;31.48;30.13;32.61;;
71016;Laerm;60940;52.046;5.340;2022-11-20T00:33:30;31.52;30.03;32.83;;
71016;Laerm;60940;52.046;5.340;2022-11-20T00:33:40;31.57;30.08;32.92;;
71016;Laerm;60940;52.046;5.340;2022-11-20T00:33:51;31.89;30.45;33.48;;
71016;Laerm;60940;52.046;5.340;2022-11-20T00:34:01;32.01;30.74;33.52;;
71016;Laerm;60940;52.046;5.340;2022-11-20T00:34:11;33.96;31.56;37.78;;
71016;Laerm;60940;52.046;5.340;2022-11-20T00:34:21;33.78;31.87;36.54;;
71016;Laerm;60940;52.046;5.340;2022-11-20T00:34:31;32.17;30.46;33.64;;
71016;Laerm;60940;52.046;5.340;2022-11-20T00:34:42;33.82;31.53;39.30;;
71016;Laerm;60940;52.046;5.340;2022-11-20T00:34:52;33.97;31.37;36.04;;
71016;Laerm;60940;52.046;5.340;2022-11-20T00:35:02;34.48;32.34;36.48;;
71016;Laerm;60940;52.046;5.340;2022-11-20T00:35:12;34.64;32.79;36.62;;
71016;Laerm;60940;52.046;5.340;2022-11-20T00:35:22;34.72;32.50;37.70;;
71016;Laerm;60940;52.046;5.340;2022-11-20T00:35:33;33.34;31.66;35.04;;
71016;Laerm;60940;52.046;5.340;2022-11-20T00:35:43;32.84;31.11;35.16;;
71016;Laerm;60940;52.046;5.340;2022-11-20T00:35:53;33.24;31.88;35.05;;
71016;Laerm;60940;52.046;5.340;2022-11-20T00:36:04;33.15;31.32;36.48;;
71016;Laerm;60940;52.046;5.340;2022-11-20T00:36:19;33.08;31.34;35.23;;
71016;Laerm;60940;52.046;5.340;2022-11-20T00:36:31;34.45;31.93;38.65;;
71016;Laerm;60940;52.046;5.340;2022-11-20T00:36:42;33.70;31.88;36.18;;
71016;Laerm;60940;52.046;5.340;2022-11-20T00:36:52;34.30;31.54;42.83;;
71016;Laerm;60940;52.046;5.340;2022-11-20T00:37:02;32.77;31.04;34.74;;
71016;Laerm;60940;52.046;5.340;2022-11-20T00:37:12;33.08;30.79;35.46;;
71016;Laerm;60940;52.046;5.340;2022-11-20T00:37:22;32.65;30.49;34.93;;
71016;Laerm;60940;52.046;5.340;2022-11-20T00:37:32;32.13;30.61;34.09;;
71016;Laerm;60940;52.046;5.340;2022-11-20T00:37:43;31.56;30.04;33.33;;
71016;Laerm;60940;52.046;5.340;2022-11-20T00:37:53;31.37;30.15;32.67;;
71016;Laerm;60940;52.046;5.340;2022-11-20T00:38:03;31.50;30.24;33.41;;
71016;Laerm;60940;52.046;5.340;2022-11-20T00:38:13;31.67;30.13;39.15;;
71016;Laerm;60940;52.046;5.340;2022-11-20T00:38:23;31.42;29.72;33.73;;
71016;Laerm;60940;52.046;5.340;2022-11-20T00:38:34;31.83;30.21;33.36;;
71016;Laerm;60940;52.046;5.340;2022-11-20T00:38:44;32.85;30.79;35.40;;
71016;Laerm;60940;52.046;5.340;2022-11-20T00:38:56;31.90;30.33;33.37;;
71016;Laerm;60940;52.046;5.340;2022-11-20T00:39:06;31.95;30.33;33.49;;
71016;Laerm;60940;52.046;5.340;2022-11-20T00:39:17;32.24;30.90;33.90;;
71016;Laerm;60940;52.046;5.340;2022-11-20T00:39:27;32.19;30.57;33.90;;
71016;Laerm;60940;52.046;5.340;2022-11-20T00:39:37;31.90;30.57;33.73;;
71016;Laerm;60940;52.046;5.340;2022-11-20T00:39:47;31.93;30.53;33.42;;
71016;Laerm;60940;52.046;5.340;2022-11-20T00:39:57;32.13;30.66;33.77;;
71016;Laerm;60940;52.046;5.340;2022-11-20T00:40:08;31.85;30.19;33.45;;
71016;Laerm;60940;52.046;5.340;2022-11-20T00:40:18;31.60;30.20;32.78;;
71016;Laerm;60940;52.046;5.340;2022-11-20T00:40:28;31.70;30.28;33.32;;
71016;Laerm;60940;52.046;5.340;2022-11-20T00:40:38;32.05;30.40;37.15;;
71016;Laerm;60940;52.046;5.340;2022-11-20T00:40:54;31.86;29.81;33.55;;
71016;Laerm;60940;52.046;5.340;2022-11-20T00:41:05;32.11;29.94;33.71;;
71016;Laerm;60940;52.046;5.340;2022-11-20T00:41:16;31.96;30.60;33.94;;
71016;Laerm;60940;52.046;5.340;2022-11-20T00:41:27;31.70;30.49;34.04;;
71016;Laerm;60940;52.046;5.340;2022-11-20T00:41:38;31.77;30.03;33.24;;
71016;Laerm;60940;52.046;5.340;2022-11-20T00:41:48;31.52;30.20;32.98;;
71016;Laerm;60940;52.046;5.340;2022-11-20T00:41:58;31.32;30.13;33.10;;
71016;Laerm;60940;52.046;5.340;2022-11-20T00:42:08;31.56;30.16;33.11;;
71016;Laerm;60940;52.046;5.340;2022-11-20T00:42:18;31.64;29.90;32.94;;
71016;Laerm;60940;52.046;5.340;2022-11-20T00:42:28;31.68;30.13;33.09;;
71016;Laerm;60940;52.046;5.340;2022-11-20T00:42:39;31.46;29.85;33.07;;
71016;Laerm;60940;52.046;5.340;2022-11-20T00:42:49;31.40;29.74;33.01;;
71016;Laerm;60940;52.046;5.340;2022-11-20T00:42:59;31.55;30.33;33.48;;
71016;Laerm;60940;52.046;5.340;2022-11-20T00:43:09;31.46;30.30;32.93;;
71016;Laerm;60940;52.046;5.340;2022-11-20T00:43:19;31.91;30.45;33.82;;
71016;Laerm;60940;52.046;5.340;2022-11-20T00:43:30;31.59;30.23;33.39;;
71016;Laerm;60940;52.046;5.340;2022-11-20T00:43:40;31.44;29.91;33.21;;
71016;Laerm;60940;52.046;5.340;2022-11-20T00:43:53;31.04;29.62;32.01;;
71016;Laerm;60940;52.046;5.340;2022-11-20T00:44:04;31.38;29.83;33.19;;
71016;Laerm;60940;52.046;5.340;2022-11-20T00:44:14;31.37;30.24;33.41;;
71016;Laerm;60940;52.046;5.340;2022-11-20T00:44:24;31.46;30.31;33.39;;
71016;Laerm;60940;52.046;5.340;2022-11-20T00:44:34;31.83;30.36;33.27;;
71016;Laerm;60940;52.046;5.340;2022-11-20T00:44:45;32.08;30.05;34.19;;
71016;Laerm;60940;52.046;5.340;2022-11-20T00:44:55;31.98;30.68;33.30;;
71016;Laerm;60940;52.046;5.340;2022-11-20T00:45:05;32.19;30.72;33.95;;
71016;Laerm;60940;52.046;5.340;2022-11-20T00:45:16;32.60;30.96;34.53;;
71016;Laerm;60940;52.046;5.340;2022-11-20T00:45:27;33.59;31.40;35.31;;
71016;Laerm;60940;52.046;5.340;2022-11-20T00:45:37;32.59;30.89;34.13;;
71016;Laerm;60940;52.046;5.340;2022-11-20T00:45:47;33.14;31.18;35.42;;
71016;Laerm;60940;52.046;5.340;2022-11-20T00:45:58;33.35;31.54;35.48;;
71016;Laerm;60940;52.046;5.340;2022-11-20T00:46:12;32.01;30.55;33.80;;
71016;Laerm;60940;52.046;5.340;2022-11-20T00:46:24;31.80;30.04;40.26;;
71016;Laerm;60940;52.046;5.340;2022-11-20T00:46:34;31.38;30.03;32.96;;
71016;Laerm;60940;52.046;5.340;2022-11-20T00:46:44;31.30;30.15;34.64;;
71016;Laerm;60940;52.046;5.340;2022-11-20T00:46:55;31.46;30.23;32.84;;
71016;Laerm;60940;52.046;5.340;2022-11-20T00:47:05;32.08;30.20;33.55;;
71016;Laerm;60940;52.046;5.340;2022-11-20T00:47:15;32.23;30.83;34.55;;
71016;Laerm;60940;52.046;5.340;2022-11-20T00:47:25;32.01;30.49;33.58;;
71016;Laerm;60940;52.046;5.340;2022-11-20T00:47:35;31.78;30.35;33.89;;
71016;Laerm;60940;52.046;5.340;2022-11-20T00:47:46;31.80;30.39;34.59;;
71016;Laerm;60940;52.046;5.340;2022-11-20T00:47:56;32.00;30.62;33.90;;
71016;Laerm;60940;52.046;5.340;2022-11-20T00:48:06;31.79;30.45;33.73;;
71016;Laerm;60940;52.046;5.340;2022-11-20T00:48:16;31.58;30.14;33.46;;
71016;Laerm;60940;52.046;5.340;2022-11-20T00:48:26;31.58;30.37;34.59;;
71016;Laerm;60940;52.046;5.340;2022-11-20T00:48:37;31.57;30.41;33.05;;
71016;Laerm;60940;52.046;5.340;2022-11-20T00:48:47;31.51;30.28;32.73;;
71016;Laerm;60940;52.046;5.340;2022-11-20T00:48:57;31.51;29.97;32.69;;
71016;Laerm;60940;52.046;5.340;2022-11-20T00:49:07;31.48;29.86;33.01;;
71016;Laerm;60940;52.046;5.340;2022-11-20T00:49:17;31.28;29.96;32.44;;
71016;Laerm;60940;52.046;5.340;2022-11-20T00:49:28;31.25;30.01;32.50;;
71016;Laerm;60940;52.046;5.340;2022-11-20T00:49:38;31.35;29.77;32.73;;
71016;Laerm;60940;52.046;5.340;2022-11-20T00:49:48;31.27;29.57;33.52;;
71016;Laerm;60940;52.046;5.340;2022-11-20T00:49:58;31.39;30.24;32.88;;
71016;Laerm;60940;52.046;5.340;2022-11-20T00:50:08;31.64;29.99;33.47;;
71016;Laerm;60940;52.046;5.340;2022-11-20T00:50:19;31.56;30.00;32.78;;
71016;Laerm;60940;52.046;5.340;2022-11-20T00:50:29;31.47;30.03;33.00;;
71016;Laerm;60940;52.046;5.340;2022-11-20T00:50:39;31.31;29.85;32.60;;
71016;Laerm;60940;52.046;5.340;2022-11-20T00:50:50;31.31;29.85;32.69;;
71016;Laerm;60940;52.046;5.340;2022-11-20T00:51:00;31.28;30.03;32.71;;
71016;Laerm;60940;52.046;5.340;2022-11-20T00:51:12;31.40;30.03;33.47;;
71016;Laerm;60940;52.046;5.340;2022-11-20T00:51:23;31.32;30.05;33.20;;
71016;Laerm;60940;52.046;5.340;2022-11-20T00:51:34;31.55;29.53;38.01;;
71016;Laerm;60940;52.046;5.340;2022-11-20T00:51:44;31.44;29.84;33.97;;
71016;Laerm;60940;52.046;5.340;2022-11-20T00:51:54;31.40;29.72;33.24;;
71016;Laerm;60940;52.046;5.340;2022-11-20T00:52:05;31.95;30.40;34.03;;
71016;Laerm;60940;52.046;5.340;2022-11-20T00:52:15;31.35;29.81;32.69;;
71016;Laerm;60940;52.046;5.340;2022-11-20T00:52:25;31.36;30.02;32.71;;
71016;Laerm;60940;52.046;5.340;2022-11-20T00:52:35;31.41;30.20;32.73;;
71016;Laerm;60940;52.046;5.340;2022-11-20T00:52:45;31.50;29.99;32.84;;
71016;Laerm;60940;52.046;5.340;2022-11-20T00:52:56;31.28;29.93;32.60;;
71016;Laerm;60940;52.046;5.340;2022-11-20T00:53:06;31.42;29.67;33.05;;
71016;Laerm;60940;52.046;5.340;2022-11-20T00:53:16;31.72;30.24;33.35;;
71016;Laerm;60940;52.046;5.340;2022-11-20T00:53:26;31.66;30.05;33.83;;
71016;Laerm;60940;52.046;5.340;2022-11-20T00:53:37;31.52;30.00;33.44;;
71016;Laerm;60940;52.046;5.340;2022-11-20T00:53:48;32.60;30.37;47.46;;
71016;Laerm;60940;52.046;5.340;2022-11-20T00:53:58;31.56;30.08;33.16;;
71016;Laerm;60940;52.046;5.340;2022-11-20T00:54:09;31.83;30.54;33.31;;
71016;Laerm;60940;52.046;5.340;2022-11-20T00:54:20;32.55;30.39;34.87;;
71016;Laerm;60940;52.046;5.340;2022-11-20T00:54:30;31.84;29.83;34.03;;
71016;Laerm;60940;52.046;5.340;2022-11-20T00:54:40;32.18;30.28;34.14;;
71016;Laerm;60940;52.046;5.340;2022-11-20T00:54:50;32.37;31.05;34.92;;
71016;Laerm;60940;52.046;5.340;2022-11-20T00:55:01;31.92;30.43;33.45;;
71016;Laerm;60940;52.046;5.340;2022-11-20T00:55:11;33.25;31.08;35.79;;
71016;Laerm;60940;52.046;5.340;2022-11-20T00:55:21;32.26;30.49;34.51;;
71016;Laerm;60940;52.046;5.340;2022-11-20T00:55:31;31.56;30.30;33.58;;
71016;Laerm;60940;52.046;5.340;2022-11-20T00:55:41;31.37;30.12;35.66;;
71016;Laerm;60940;52.046;5.340;2022-11-20T00:55:58;31.43;29.80;33.02;;
71016;Laerm;60940;52.046;5.340;2022-11-20T00:56:13;32.01;30.18;33.60;;
71016;Laerm;60940;52.046;5.340;2022-11-20T00:56:23;33.14;31.37;34.80;;
71016;Laerm;60940;52.046;5.340;2022-11-20T00:56:33;32.65;30.75;34.95;;
71016;Laerm;60940;52.046;5.340;2022-11-20T00:56:44;32.02;30.63;34.55;;
71016;Laerm;60940;52.046;5.340;2022-11-20T00:56:55;32.40;30.43;44.08;;
71016;Laerm;60940;52.046;5.340;2022-11-20T00:57:05;31.98;30.72;33.65;;
71016;Laerm;60940;52.046;5.340;2022-11-20T00:57:16;31.74;30.21;32.98;;
71016;Laerm;60940;52.046;5.340;2022-11-20T00:57:26;31.81;30.20;33.20;;
71016;Laerm;60940;52.046;5.340;2022-11-20T00:57:36;31.59;30.25;32.68;;
71016;Laerm;60940;52.046;5.340;2022-11-20T00:57:46;31.36;30.05;32.66;;
71016;Laerm;60940;52.046;5.340;2022-11-20T00:57:56;31.65;29.81;32.99;;
71016;Laerm;60940;52.046;5.340;2022-11-20T00:58:06;32.95;30.90;35.16;;
71016;Laerm;60940;52.046;5.340;2022-11-20T00:58:17;35.13;32.59;38.62;;
71016;Laerm;60940;52.046;5.340;2022-11-20T00:58:31;34.29;31.25;37.80;;
71016;Laerm;60940;52.046;5.340;2022-11-20T00:58:43;32.26;30.33;33.82;;
71016;Laerm;60940;52.046;5.340;2022-11-20T00:58:54;32.03;30.29;33.41;;
71016;Laerm;60940;52.046;5.340;2022-11-20T00:59:04;31.85;30.26;38.64;;
71016;Laerm;60940;52.046;5.340;2022-11-20T00:59:14;32.56;31.04;35.04;;